Time;durP1;ratioP1;P1;durP2;ratioP2;P2;SDS_P1;SDS_P2;PMS_P1;PMS_P2;Temp;Humidity;BMP_temperature;BMP_pressure;BME280_temperature;BME280_humidity;BME280_pressure;Samples;Min_cycle;Max_cycle;Signal;HPM_P1;HPM_P2
2023/01/15 00:02:18;;;;;;;7.50;4.80;;;;;;;4.10;84.14;98692.42;445635;1254;142442;-63
2023/01/15 00:12:23;;;;;;;8.30;5.20;;;;;;;4.12;83.77;98661.49;432096;1254;185491;-64
2023/01/15 00:22:30;;;;;;;6.00;3.70;;;;;;;4.08;83.67;98638.50;450038;1254;143493;-62
2023/01/15 00:32:36;;;;;;;11.10;4.50;;;;;;;4.08;83.39;98615.45;436134;1254;146181;-62
2023/01/15 00:42:41;;;;;;;7.40;4.70;;;;;;;4.13;83.20;98592.50;448325;1253;142168;-62
2023/01/15 00:52:51;;;;;;;7.70;4.40;;;;;;;4.17;82.85;98584.99;450158;1252;142543;-64
2023/01/15 01:02:57;;;;;;;5.90;3.40;;;;;;;4.15;82.93;98573.85;450128;1254;141851;-64
2023/01/15 01:13:03;;;;;;;7.20;3.70;;;;;;;4.12;82.67;98559.13;449354;1253;143019;-62
2023/01/15 01:23:09;;;;;;;6.20;3.40;;;;;;;4.11;82.52;98528.88;450014;1251;142452;-62
2023/01/15 01:33:15;;;;;;;6.30;3.10;;;;;;;4.09;82.54;98509.59;449646;1252;141898;-64
2023/01/15 01:43:24;;;;;;;5.50;3.60;;;;;;;4.22;82.35;98507.15;450029;1251;141854;-63
2023/01/15 01:53:32;;;;;;;5.60;3.10;;;;;;;4.36;81.93;98507.77;442791;1252;145698;-63
2023/01/15 02:03:40;;;;;;;5.20;2.40;;;;;;;4.49;81.65;98492.13;439126;1253;145670;-63
2023/01/15 02:13:51;;;;;;;5.30;2.90;;;;;;;4.57;81.21;98450.27;445501;1252;141968;-61
2023/01/15 02:24:09;;;;;;;4.70;2.90;;;;;;;4.60;80.92;98439.52;438442;1252;147836;-62
2023/01/15 02:34:20;;;;;;;5.20;3.20;;;;;;;4.55;80.38;98422.81;443213;1251;212807;-62
2023/01/15 02:44:29;;;;;;;4.40;2.70;;;;;;;4.50;80.34;98428.83;442401;1251;143123;-62
2023/01/15 02:54:40;;;;;;;3.40;2.20;;;;;;;4.56;79.97;98405.60;436931;1251;144047;-63
2023/01/15 03:04:52;;;;;;;4.10;2.20;;;;;;;4.47;79.65;98386.90;438806;1251;142113;-63
2023/01/15 03:15:09;;;;;;;6.20;2.60;;;;;;;4.35;79.70;98375.06;433820;1251;141676;-64
2023/01/15 03:25:20;;;;;;;3.60;2.90;;;;;;;4.31;80.17;98362.33;435876;1251;212443;-63
2023/01/15 03:35:47;;;;;;;5.10;2.30;;;;;;;4.48;80.00;98353.88;444445;1250;142479;-63
2023/01/15 03:45:59;;;;;;;5.00;2.40;;;;;;;4.67;79.85;98329.20;434065;1251;142157;-63
2023/01/15 03:56:14;;;;;;;4.90;2.90;;;;;;;4.75;79.38;98310.48;441823;1250;141907;-65
2023/01/15 04:06:21;;;;;;;2.30;1.80;;;;;;;4.83;79.47;98313.30;432809;1253;162603;-62
2023/01/15 04:16:28;;;;;;;3.30;2.00;;;;;;;4.98;79.31;98298.05;446828;1252;142116;-63
2023/01/15 04:26:34;;;;;;;3.60;2.80;;;;;;;5.14;79.26;98280.91;433550;1251;141772;-63
2023/01/15 04:36:41;;;;;;;3.90;2.40;;;;;;;5.31;78.91;98265.46;434936;1252;161969;-64
2023/01/15 04:46:48;;;;;;;6.60;2.50;;;;;;;5.40;78.86;98251.52;438408;1251;140914;-62
2023/01/15 04:56:54;;;;;;;2.00;1.70;;;;;;;5.43;78.84;98250.31;438089;1253;146679;-63
2023/01/15 05:07:02;;;;;;;2.30;1.70;;;;;;;5.52;79.02;98249.02;439739;1252;143020;-63
2023/01/15 05:17:08;;;;;;;5.50;2.20;;;;;;;5.66;79.48;98238.21;441358;1252;142093;-62
2023/01/15 05:27:14;;;;;;;4.10;2.00;;;;;;;5.64;80.56;98219.96;438189;1252;141491;-62
2023/01/15 05:37:20;;;;;;;4.50;2.70;;;;;;;5.62;80.99;98208.08;435189;1251;196205;-62
2023/01/15 05:47:26;;;;;;;4.00;1.70;;;;;;;5.66;81.53;98187.73;433245;1252;142328;-62
2023/01/15 05:57:32;;;;;;;3.70;1.50;;;;;;;5.67;82.25;98171.20;437705;1250;194541;-63
2023/01/15 06:07:38;;;;;;;3.10;2.00;;;;;;;5.71;82.82;98143.84;437822;1250;142170;-63
2023/01/15 06:17:44;;;;;;;5.70;2.60;;;;;;;5.75;83.26;98143.37;436984;1251;141814;-63
2023/01/15 06:27:50;;;;;;;3.20;1.80;;;;;;;5.88;83.75;98139.20;432665;1251;142142;-63
2023/01/15 06:37:56;;;;;;;5.60;3.90;;;;;;;6.01;84.04;98139.04;433419;1255;142013;-63
2023/01/15 06:48:05;;;;;;;2.90;1.80;;;;;;;6.16;84.28;98147.38;437633;1252;141496;-62
2023/01/15 06:58:11;;;;;;;2.90;1.80;;;;;;;6.32;84.30;98144.56;434512;1253;142963;-63
2023/01/15 07:08:17;;;;;;;4.10;2.80;;;;;;;6.46;84.12;98150.76;438809;1253;151046;-63
2023/01/15 07:18:22;;;;;;;2.70;2.30;;;;;;;6.55;84.06;98160.56;436485;1252;198434;-63
2023/01/15 07:28:29;;;;;;;2.90;2.30;;;;;;;6.48;84.52;98157.58;435387;1254;146368;-62
2023/01/15 07:38:35;;;;;;;2.70;2.20;;;;;;;6.36;85.34;98162.06;434390;1252;143873;-63
2023/01/15 07:59:05;;;;;;;3.40;2.80;;;;;;;6.15;86.29;98144.30;434332;1252;141865;-63
2023/01/15 08:09:12;;;;;;;3.90;2.90;;;;;;;6.13;86.43;98137.34;441188;1252;142460;-62
2023/01/15 08:19:18;;;;;;;4.00;3.00;;;;;;;6.12;86.81;98133.42;433824;1251;142647;-63
2023/01/15 08:29:23;;;;;;;5.60;3.80;;;;;;;6.02;87.31;98133.09;434290;1252;141728;-63
2023/01/15 08:39:29;;;;;;;4.50;3.40;;;;;;;5.85;87.98;98126.77;432260;1252;141987;-62
2023/01/15 08:49:35;;;;;;;6.90;3.80;;;;;;;5.72;88.23;98129.86;438690;1252;142276;-64
2023/01/15 08:59:42;;;;;;;6.20;4.20;;;;;;;5.63;88.38;98134.13;433264;1252;141318;-62
2023/01/15 09:09:48;;;;;;;6.10;4.70;;;;;;;5.56;88.65;98138.37;437683;1252;142070;-63
2023/01/15 09:19:54;;;;;;;4.70;4.20;;;;;;;5.55;88.61;98146.05;434609;1253;141094;-63
2023/01/15 09:30:06;;;;;;;5.10;4.20;;;;;;;5.43;88.55;98144.30;433259;1254;142010;-63
2023/01/15 09:40:32;;;;;;;5.50;3.70;;;;;;;5.27;88.96;98147.41;435670;1252;141827;-63
2023/01/15 09:50:49;;;;;;;5.10;3.40;;;;;;;5.14;89.58;98130.69;450221;1252;143124;-63
2023/01/15 10:00:55;;;;;;;5.60;3.60;;;;;;;5.07;89.87;98121.46;449632;1252;144957;-63
2023/01/15 10:11:05;;;;;;;7.20;3.60;;;;;;;5.04;90.39;98103.43;450434;1252;142369;-62
2023/01/15 10:21:29;;;;;;;6.70;4.00;;;;;;;5.00;90.75;98095.68;434095;1255;140786;-63
2023/01/15 10:31:50;;;;;;;4.60;2.90;;;;;;;4.98;90.98;98080.77;450090;1252;209970;-63
2023/01/15 10:42:12;;;;;;;6.10;4.10;;;;;;;4.98;91.25;98068.58;441771;1252;141675;-64
2023/01/15 10:52:27;;;;;;;11.80;6.40;;;;;;;5.00;91.15;98061.19;434984;1255;141189;-61
2023/01/15 11:02:39;;;;;;;8.80;5.30;;;;;;;5.03;91.26;98055.80;439981;1252;142614;-63
2023/01/15 11:23:22;;;;;;;4.30;3.70;;;;;;;5.23;90.74;98037.48;450253;1252;151613;-63
2023/01/15 11:33:30;;;;;;;5.50;3.50;;;;;;;5.30;90.41;98032.17;449192;1252;142525;-64
2023/01/15 11:54:04;;;;;;;5.20;3.80;;;;;;;5.45;89.42;98017.95;450173;1255;142844;-64
2023/01/15 12:04:29;;;;;;;4.60;3.60;;;;;;;5.49;88.79;98012.13;445930;1253;143081;-63
2023/01/15 12:14:58;;;;;;;5.80;3.30;;;;;;;5.58;88.26;98003.38;450090;1250;143159;-63
2023/01/15 12:25:34;;;;;;;6.60;4.30;;;;;;;5.66;87.66;97998.30;449415;1252;187509;-62
2023/01/15 12:35:45;;;;;;;5.20;3.10;;;;;;;5.74;87.03;97991.67;450151;1252;142985;-62
2023/01/15 12:45:56;;;;;;;4.50;3.50;;;;;;;5.79;86.61;97998.63;448713;1251;142717;-63
2023/01/15 12:56:08;;;;;;;5.80;3.90;;;;;;;5.81;86.27;98004.55;450159;1252;142873;-63
2023/01/15 13:06:16;;;;;;;3.90;3.40;;;;;;;5.84;85.90;97995.36;450002;1252;141206;-63
2023/01/15 13:16:27;;;;;;;6.50;4.40;;;;;;;5.86;85.58;98010.27;444687;1256;196390;-64
2023/01/15 13:26:51;;;;;;;5.30;4.60;;;;;;;5.87;85.28;98022.90;450112;1252;143807;-62
2023/01/15 13:37:03;;;;;;;6.50;4.60;;;;;;;5.87;85.21;98030.17;449425;1251;142827;-64
2023/01/15 13:47:12;;;;;;;4.70;3.10;;;;;;;5.86;85.09;98042.06;449635;1252;142780;-63
2023/01/15 13:57:26;;;;;;;4.10;3.40;;;;;;;5.84;84.95;98047.27;449409;1253;141208;-64
2023/01/15 14:07:37;;;;;;;4.90;3.50;;;;;;;5.82;84.86;98044.26;450192;1253;141551;-64
2023/01/15 14:18:07;;;;;;;5.80;5.20;;;;;;;5.81;85.03;98049.21;434189;1256;143055;-63
2023/01/15 14:28:40;;;;;;;5.10;3.80;;;;;;;5.77;85.11;98061.31;449304;1253;140800;-63
2023/01/15 14:38:51;;;;;;;8.40;4.60;;;;;;;5.72;85.30;98071.20;450138;1252;141524;-64
2023/01/15 14:48:57;;;;;;;7.40;5.10;;;;;;;5.69;85.40;98072.61;447228;1252;141731;-64
2023/01/15 14:59:09;;;;;;;7.00;4.60;;;;;;;5.65;85.64;98075.11;442431;1256;142147;-70
2023/01/15 15:09:21;;;;;;;9.50;5.00;;;;;;;5.57;86.19;98086.73;443589;1252;143726;-67
2023/01/15 15:19:35;;;;;;;8.70;5.70;;;;;;;5.47;86.69;98090.55;445472;1256;210842;-70
2023/01/15 15:29:41;;;;;;;13.80;7.30;;;;;;;5.40;87.15;98116.15;445060;1252;168825;-69
2023/01/15 15:39:55;;;;;;;12.50;7.00;;;;;;;5.29;87.79;98128.30;443627;1256;144691;-70
2023/01/15 15:50:01;;;;;;;12.80;6.90;;;;;;;5.18;88.08;98135.65;447921;1254;144167;-68
2023/01/15 16:00:20;;;;;;;5.80;4.50;;;;;;;5.09;88.51;98148.88;450102;1252;144640;-69
2023/01/15 16:10:31;;;;;;;9.30;5.00;;;;;;;5.05;88.60;98158.34;449680;1252;212893;-69
2023/01/15 16:20:39;;;;;;;14.10;8.80;;;;;;;5.00;88.82;98148.59;450100;1252;142119;-68
2023/01/15 16:30:45;;;;;;;5.80;4.60;;;;;;;4.86;89.56;98153.60;449407;1253;143513;-68
2023/01/15 16:40:52;;;;;;;4.20;3.40;;;;;;;4.77;90.43;98186.95;449921;1254;143431;-67
2023/01/15 16:50:58;;;;;;;3.00;2.20;;;;;;;4.63;91.59;98218.31;444556;1255;144296;-69
2023/01/15 17:01:30;;;;;;;3.00;2.50;;;;;;;4.46;92.90;98231.51;433483;1257;142618;-69
2023/01/15 17:11:36;;;;;;;3.80;2.70;;;;;;;4.31;93.93;98251.96;450074;1251;142652;-68
2023/01/15 17:21:46;;;;;;;3.70;2.70;;;;;;;4.23;94.76;98281.02;449347;1253;145067;-70
2023/01/15 17:31:52;;;;;;;4.40;2.90;;;;;;;4.19;95.35;98298.75;449960;1253;142687;-69
2023/01/15 17:41:58;;;;;;;5.20;3.00;;;;;;;4.19;95.64;98305.45;450073;1253;143317;-69
2023/01/15 17:52:07;;;;;;;3.60;2.50;;;;;;;3.95;95.54;98310.18;440924;1253;141796;-69
2023/01/15 18:12:39;;;;;;;10.60;6.00;;;;;;;3.60;96.63;98322.81;433150;1254;141741;-68
2023/01/15 18:22:45;;;;;;;11.60;7.40;;;;;;;3.47;97.11;98333.23;449904;1254;142709;-69
2023/01/15 18:32:51;;;;;;;8.90;7.40;;;;;;;3.37;97.63;98343.48;445845;1252;141188;-68
2023/01/15 18:53:20;;;;;;;8.50;6.20;;;;;;;3.27;98.12;98345.08;449984;1253;142355;-68
2023/01/15 19:03:27;;;;;;;9.70;7.80;;;;;;;3.16;98.29;98349.09;448857;1252;140868;-68
2023/01/15 19:13:33;;;;;;;11.40;8.70;;;;;;;3.05;98.23;98350.36;449890;1253;142104;-69
2023/01/15 19:23:38;;;;;;;13.90;11.10;;;;;;;2.96;98.82;98358.61;449929;1251;144962;-70
2023/01/15 19:33:44;;;;;;;8.50;7.60;;;;;;;2.90;99.30;98378.27;441425;1251;142343;-69
2023/01/15 19:54:54;;;;;;;6.10;4.70;;;;;;;2.80;99.86;98372.04;432894;1252;143603;-69
2023/01/15 20:04:41;;;;;;;7.50;4.90;;;;;;;2.72;100.00;98376.09;440644;1252;195500;-70
2023/01/15 20:14:47;;;;;;;6.80;5.30;;;;;;;2.67;100.00;98386.17;442438;1252;141888;-67
2023/01/15 20:24:53;;;;;;;9.10;5.50;;;;;;;2.68;100.00;98372.83;447865;1251;143682;-69
2023/01/15 20:34:59;;;;;;;7.10;5.20;;;;;;;2.71;100.00;98378.53;449943;1252;142109;-70
2023/01/15 20:45:09;;;;;;;6.90;5.50;;;;;;;2.73;100.00;98393.13;438735;1252;142382;-69
2023/01/15 20:55:16;;;;;;;6.60;5.00;;;;;;;2.71;100.00;98399.98;449455;1251;198522;-68
2023/01/15 21:05:22;;;;;;;7.30;5.70;;;;;;;2.68;100.00;98398.09;439331;1252;141231;-67
2023/01/15 21:15:28;;;;;;;11.00;6.80;;;;;;;2.72;100.00;98405.30;447957;1252;143400;-69
2023/01/15 21:25:34;;;;;;;7.50;5.40;;;;;;;2.81;100.00;98399.47;450092;1252;142721;-69
2023/01/15 21:35:41;;;;;;;6.30;5.20;;;;;;;2.77;100.00;98390.70;450055;1252;142018;-68
2023/01/15 21:45:47;;;;;;;8.20;5.60;;;;;;;2.71;100.00;98395.33;435663;1253;143142;-69
2023/01/15 21:55:53;;;;;;;9.70;5.70;;;;;;;2.64;100.00;98398.95;440747;1252;144754;-70
2023/01/15 22:06:04;;;;;;;6.80;5.00;;;;;;;2.57;100.00;98395.48;441675;1256;143039;-69
2023/01/15 22:16:10;;;;;;;7.60;5.40;;;;;;;2.52;100.00;98393.34;443075;1252;142150;-72
2023/01/15 22:26:20;;;;;;;7.00;4.80;;;;;;;2.47;100.00;98391.33;437682;1252;141948;-68
2023/01/15 22:36:26;;;;;;;7.50;6.40;;;;;;;2.43;100.00;98387.73;449339;1252;143005;-67
2023/01/15 22:46:32;;;;;;;7.10;6.40;;;;;;;2.36;100.00;98374.92;438660;1252;147519;-67
2023/01/15 22:56:37;;;;;;;7.20;6.00;;;;;;;2.29;100.00;98365.77;450163;1252;142157;-69
2023/01/15 23:06:44;;;;;;;8.10;5.40;;;;;;;2.26;100.00;98364.70;447973;1252;142371;-68
2023/01/15 23:16:50;;;;;;;8.00;5.10;;;;;;;2.13;100.00;98363.96;437397;1250;142062;-69
2023/01/15 23:26:56;;;;;;;8.30;5.10;;;;;;;2.03;100.00;98360.48;442275;1251;195133;-69
2023/01/15 23:37:02;;;;;;;5.70;4.20;;;;;;;1.88;100.00;98362.08;438455;1252;141265;-68
2023/01/15 23:47:09;;;;;;;5.80;3.70;;;;;;;1.67;100.00;98366.50;434716;1251;145777;-69
2023/01/15 23:57:13;;;;;;;;;;;;;;;1.45;100.00;98358.21;442614;1252;143133;-69
